createdAt,value
2022-08-23T00:00:45.405Z,2.70
2022-08-23T00:03:34.703Z,1.90
2022-08-23T00:06:26.093Z,1.80
2022-08-23T00:09:17.108Z,2.90
2022-08-23T00:12:18.533Z,2.90
2022-08-23T00:15:07.314Z,1.70
2022-08-23T00:17:55.557Z,2.10
2022-08-23T00:20:42.984Z,2.10
2022-08-23T00:23:30.227Z,2.00
2022-08-23T00:26:17.971Z,2.80
2022-08-23T00:29:05.210Z,2.10
2022-08-23T00:31:52.669Z,2.60
2022-08-23T00:34:41.109Z,2.30
2022-08-23T00:37:32.507Z,2.20
2022-08-23T00:40:20.335Z,2.50
2022-08-23T00:43:30.384Z,2.10
2022-08-23T00:46:49.686Z,2.40
2022-08-23T00:49:37.913Z,3.90
2022-08-23T00:52:37.634Z,2.00
2022-08-23T00:55:25.587Z,1.50
2022-08-23T00:58:15.712Z,2.00
2022-08-23T01:02:08.173Z,3.00
2022-08-23T01:04:59.597Z,1.90
2022-08-23T01:07:54.678Z,2.10
2022-08-23T01:10:48.440Z,1.80
2022-08-23T01:13:47.772Z,4.00
2022-08-23T01:16:45.796Z,2.40
2022-08-23T01:19:44.256Z,3.40
2022-08-23T01:23:02.443Z,3.20
2022-08-23T01:25:51.470Z,2.30
2022-08-23T01:28:41.159Z,12.90
2022-08-23T01:31:35.379Z,5.10
2022-08-23T01:34:27.612Z,1.90
2022-08-23T01:37:14.915Z,2.20
2022-08-23T01:40:02.167Z,2.00
2022-08-23T01:42:50.040Z,9.80
2022-08-23T01:45:39.724Z,2.10
2022-08-23T01:48:27.839Z,2.90
2022-08-23T01:51:18.802Z,6.70
2022-08-23T01:54:06.109Z,2.90
2022-08-23T01:56:53.288Z,2.50
2022-08-23T01:59:40.287Z,2.80
2022-08-23T02:02:28.371Z,1.80
2022-08-23T02:05:17.419Z,6.00
2022-08-23T02:08:27.977Z,2.40
2022-08-23T02:11:19.187Z,4.90
2022-08-23T02:14:12.180Z,11.50
2022-08-23T02:17:25.376Z,8.10
2022-08-23T02:20:12.501Z,3.90
2022-08-23T02:23:00.751Z,3.10
2022-08-23T02:25:48.755Z,3.60
2022-08-23T02:28:35.697Z,3.20
2022-08-23T02:31:23.631Z,3.10
2022-08-23T02:34:14.507Z,3.60
2022-08-23T02:37:02.412Z,3.90
2022-08-23T02:39:49.984Z,4.50
2022-08-23T02:42:37.294Z,4.20
2022-08-23T02:45:27.975Z,3.70
2022-08-23T02:48:15.189Z,2.90
2022-08-23T02:51:11.818Z,3.90
2022-08-23T02:53:59.060Z,9.60
2022-08-23T02:56:47.029Z,3.10
2022-08-23T02:59:34.777Z,2.30
2022-08-23T03:02:21.671Z,2.20
2022-08-23T03:05:10.423Z,4.50
2022-08-23T03:07:57.993Z,3.90
2022-08-23T03:10:47.485Z,2.90
2022-08-23T03:13:35.776Z,2.70
2022-08-23T03:16:24.308Z,2.70
2022-08-23T03:19:11.599Z,3.60
2022-08-23T03:21:59.708Z,2.60
2022-08-23T03:24:46.844Z,2.70
2022-08-23T03:27:38.293Z,2.60
2022-08-23T03:30:33.830Z,3.00
2022-08-23T03:33:21.455Z,2.60
2022-08-23T03:36:13.354Z,3.00
2022-08-23T03:39:01.232Z,5.50
2022-08-23T03:41:48.788Z,2.60
2022-08-23T03:44:36.872Z,2.40
2022-08-23T03:47:23.940Z,3.30
2022-08-23T03:50:12.665Z,3.10
2022-08-23T03:53:00.532Z,2.70
2022-08-23T03:55:47.522Z,2.60
2022-08-23T03:58:36.119Z,4.50
2022-08-23T04:01:28.422Z,4.40
2022-08-23T04:04:16.706Z,5.00
2022-08-23T04:07:22.119Z,4.00
2022-08-23T04:10:15.173Z,4.70
2022-08-23T04:13:03.312Z,4.70
2022-08-23T04:15:50.125Z,5.60
2022-08-23T04:18:37.839Z,5.70
2022-08-23T04:21:25.435Z,5.90
2022-08-23T04:24:12.639Z,5.20
2022-08-23T04:26:59.849Z,5.40
2022-08-23T04:29:47.223Z,6.10
2022-08-23T04:32:34.666Z,6.90
2022-08-23T04:35:24.024Z,6.80
2022-08-23T04:38:24.539Z,6.70
2022-08-23T04:41:33.832Z,7.60
2022-08-23T04:44:21.242Z,5.40
2022-08-23T04:47:09.006Z,7.00
2022-08-23T04:49:55.775Z,5.10
2022-08-23T04:52:42.595Z,7.20
2022-08-23T04:55:29.656Z,6.20
2022-08-23T04:58:24.621Z,6.00
2022-08-23T05:01:16.244Z,8.00
2022-08-23T05:04:05.327Z,8.40
2022-08-23T05:06:52.977Z,8.40
2022-08-23T05:09:41.405Z,6.40
2022-08-23T05:12:29.290Z,7.40
2022-08-23T05:15:16.494Z,8.80
2022-08-23T05:18:06.264Z,8.60
2022-08-23T05:20:53.996Z,8.30
2022-08-23T05:23:40.891Z,7.70
2022-08-23T05:26:34.121Z,7.50
2022-08-23T05:29:21.659Z,9.50
2022-08-23T05:32:10.984Z,9.80
2022-08-23T05:34:58.062Z,8.50
2022-08-23T05:37:44.989Z,8.80
2022-08-23T05:40:32.012Z,9.60
2022-08-23T05:43:29.701Z,9.40
2022-08-23T05:46:21.193Z,12.40
2022-08-23T05:49:36.680Z,10.90
2022-08-23T05:52:23.452Z,10.90
2022-08-23T05:55:10.770Z,12.80
2022-08-23T05:58:00.399Z,13.50
2022-08-23T06:00:48.000Z,18.50
2022-08-23T06:03:35.579Z,16.60
2022-08-23T06:06:22.997Z,15.90
2022-08-23T06:09:22.897Z,21.30
2022-08-23T06:12:10.439Z,22.20
2022-08-23T06:14:58.524Z,27.60
2022-08-23T06:17:47.124Z,24.00
2022-08-23T06:20:34.185Z,22.10
2022-08-23T06:23:24.999Z,22.10
2022-08-23T06:26:14.980Z,21.90
2022-08-23T06:29:08.214Z,23.30
2022-08-23T06:31:56.545Z,20.80
2022-08-23T06:34:48.822Z,20.00
2022-08-23T06:37:41.632Z,19.50
2022-08-23T06:40:45.414Z,17.90
2022-08-23T06:43:48.830Z,19.40
2022-08-23T06:46:42.468Z,20.20
2022-08-23T06:49:29.902Z,19.80
2022-08-23T06:52:18.371Z,18.80
2022-08-23T06:55:13.772Z,19.20
2022-08-23T06:58:21.250Z,18.60
2022-08-23T07:01:45.582Z,24.50
2022-08-23T07:04:44.163Z,19.30
2022-08-23T07:07:49.901Z,19.80
2022-08-23T07:10:36.939Z,19.30
2022-08-23T07:13:23.856Z,21.80
2022-08-23T07:16:11.638Z,17.90
2022-08-23T07:18:59.036Z,21.60
2022-08-23T07:21:48.699Z,22.20
2022-08-23T07:24:36.131Z,17.60
2022-08-23T07:27:24.450Z,18.10
2022-08-23T07:30:18.534Z,23.00
2022-08-23T07:33:07.286Z,20.60
2022-08-23T07:35:57.802Z,21.50
2022-08-23T07:38:46.106Z,18.10
2022-08-23T07:41:35.301Z,21.40
2022-08-23T07:44:24.464Z,19.90
2022-08-23T07:47:15.068Z,27.80
2022-08-23T07:50:02.059Z,31.20
2022-08-23T07:52:51.755Z,30.50
2022-08-23T07:55:40.098Z,29.00
2022-08-23T07:58:42.769Z,28.90
2022-08-23T08:01:48.353Z,37.50
2022-08-23T08:04:36.004Z,39.70
2022-08-23T08:07:23.177Z,37.30
2022-08-23T08:10:16.884Z,37.40
2022-08-23T08:13:03.863Z,32.20
2022-08-23T08:15:51.200Z,30.40
2022-08-23T08:18:39.493Z,33.90
2022-08-23T08:22:05.345Z,33.80
2022-08-23T08:25:18.913Z,39.50
2022-08-23T08:28:07.898Z,35.80
2022-08-23T08:30:57.718Z,35.40
2022-08-23T08:33:44.906Z,31.10
2022-08-23T08:36:42.569Z,27.40
2022-08-23T08:39:34.048Z,29.80
2022-08-23T08:42:45.610Z,26.10
2022-08-23T08:45:58.827Z,28.30
2022-08-23T08:48:50.423Z,30.10
2022-08-23T08:51:51.110Z,39.10
2022-08-23T08:54:42.889Z,34.60
2022-08-23T08:57:40.076Z,32.10
2022-08-23T09:00:32.600Z,35.50
2022-08-23T09:03:22.753Z,28.30
2022-08-23T09:06:26.213Z,23.70
2022-08-23T09:09:28.374Z,30.10
2022-08-23T09:13:03.722Z,34.10
2022-08-23T09:16:15.941Z,24.60
2022-08-23T09:19:04.835Z,25.60
2022-08-23T09:22:14.629Z,32.10
2022-08-23T09:25:02.073Z,24.80
2022-08-23T09:27:57.702Z,22.80
2022-08-23T09:30:55.728Z,24.90
2022-08-23T09:33:49.210Z,21.50
2022-08-23T09:37:20.963Z,21.70
2022-08-23T09:40:34.308Z,21.40
2022-08-23T09:43:27.028Z,22.90
2022-08-23T09:46:26.602Z,23.90
2022-08-23T09:49:23.269Z,23.00
2022-08-23T09:52:37.908Z,22.10
2022-08-23T09:55:28.150Z,22.30
2022-08-23T09:58:32.136Z,23.50
2022-08-23T10:01:26.051Z,26.00
2022-08-23T10:04:46.273Z,25.90
2022-08-23T10:07:42.427Z,25.20
2022-08-23T10:10:52.736Z,24.50
2022-08-23T10:13:46.139Z,32.90
2022-08-23T10:17:00.659Z,29.10
2022-08-23T10:20:30.627Z,25.20
2022-08-23T10:24:04.533Z,23.90
2022-08-23T10:27:27.487Z,25.50
2022-08-23T10:30:34.962Z,24.40
2022-08-23T10:33:38.179Z,23.90
2022-08-23T10:36:46.861Z,23.90
2022-08-23T10:40:04.702Z,24.10
2022-08-23T10:43:20.991Z,26.70
2022-08-23T10:46:09.883Z,26.70
2022-08-23T10:49:00.275Z,29.50
2022-08-23T10:51:51.797Z,31.30
2022-08-23T10:54:49.163Z,24.40
2022-08-23T10:57:42.698Z,25.10
2022-08-23T11:00:32.332Z,28.80
2022-08-23T11:03:35.331Z,27.10
2022-08-23T11:06:28.278Z,26.20
2022-08-23T11:09:19.029Z,25.10
2022-08-23T11:12:23.347Z,26.50
2022-08-23T11:15:48.864Z,25.00
2022-08-23T11:18:36.116Z,25.80
2022-08-23T11:21:28.587Z,22.30
2022-08-23T11:24:41.244Z,23.90
2022-08-23T11:27:43.147Z,24.20
2022-08-23T11:30:34.182Z,24.80
2022-08-23T11:33:42.662Z,27.70
2022-08-23T11:36:33.680Z,24.10
2022-08-23T11:39:25.615Z,24.00
2022-08-23T11:42:19.726Z,25.60
2022-08-23T11:45:28.028Z,26.20
2022-08-23T11:48:43.668Z,26.00
2022-08-23T11:51:52.668Z,22.50
2022-08-23T11:54:52.066Z,25.60
2022-08-23T11:58:04.273Z,23.20
2022-08-23T12:01:06.301Z,22.90
2022-08-23T12:04:02.410Z,23.40
2022-08-23T12:06:55.629Z,23.10
2022-08-23T12:09:42.665Z,25.50
2022-08-23T12:12:38.120Z,22.00
2022-08-23T12:16:06.783Z,24.20
2022-08-23T12:19:09.753Z,24.00
2022-08-23T12:22:09.872Z,21.80
2022-08-23T12:25:07.232Z,22.90
2022-08-23T12:28:32.231Z,23.00
2022-08-23T12:31:32.445Z,23.40
2022-08-23T12:34:32.558Z,23.10
2022-08-23T12:37:45.129Z,23.40
2022-08-23T12:40:43.814Z,20.10
2022-08-23T12:43:31.780Z,23.90
2022-08-23T12:46:33.415Z,19.10
2022-08-23T12:49:31.713Z,21.80
2022-08-23T12:52:25.533Z,19.90
2022-08-23T12:55:16.895Z,21.50
2022-08-23T12:58:05.428Z,21.70
2022-08-23T13:00:56.402Z,23.30
2022-08-23T13:03:46.775Z,22.40
2022-08-23T13:06:49.591Z,25.00
2022-08-23T13:09:40.180Z,23.10
2022-08-23T13:12:28.266Z,23.60
2022-08-23T13:15:46.719Z,22.10
2022-08-23T13:18:38.497Z,21.80
2022-08-23T13:21:25.926Z,22.50
2022-08-23T13:24:37.681Z,20.90
2022-08-23T13:27:38.228Z,21.60
2022-08-23T13:30:29.645Z,21.30
2022-08-23T13:33:21.753Z,23.80
2022-08-23T13:36:16.085Z,23.90
2022-08-23T13:39:06.808Z,22.90
2022-08-23T13:41:55.689Z,22.50
2022-08-23T13:44:44.023Z,22.10
2022-08-23T13:47:31.536Z,22.30
2022-08-23T13:50:28.208Z,22.60
2022-08-23T13:56:03.534Z,21.70
2022-08-23T13:59:00.465Z,23.70
2022-08-23T14:01:47.935Z,26.50
2022-08-23T14:04:35.542Z,24.70
2022-08-23T14:07:22.362Z,25.00
2022-08-23T14:10:09.813Z,27.20
2022-08-23T14:12:57.358Z,27.30
2022-08-23T14:22:01.009Z,25.40
2022-08-23T14:24:48.488Z,24.00
2022-08-23T14:27:36.012Z,23.80
2022-08-23T14:30:32.292Z,22.80
2022-08-23T14:33:21.608Z,22.40
2022-08-23T14:36:09.393Z,22.00
2022-08-23T14:38:57.565Z,24.10
2022-08-23T14:41:47.990Z,23.60
2022-08-23T14:44:37.416Z,21.70
2022-08-23T14:47:27.032Z,22.00
2022-08-23T14:50:14.653Z,25.10
2022-08-23T14:53:04.656Z,23.00
2022-08-23T14:56:12.387Z,20.90
2022-08-23T14:59:01.834Z,23.70
2022-08-23T15:01:50.739Z,21.30
2022-08-23T15:04:38.893Z,28.70
2022-08-23T15:07:25.554Z,20.90
2022-08-23T15:13:32.465Z,18.20
2022-08-23T15:16:22.740Z,20.10
2022-08-23T15:19:09.947Z,18.50
2022-08-23T15:21:58.071Z,19.00
2022-08-23T15:24:45.451Z,19.30
2022-08-23T15:27:32.721Z,18.90
2022-08-23T15:30:20.007Z,17.40
2022-08-23T15:33:08.805Z,17.60
2022-08-23T15:35:58.880Z,18.10
2022-08-23T15:38:49.011Z,19.60
2022-08-23T15:41:36.010Z,18.60
2022-08-23T15:44:25.296Z,20.00
2022-08-23T15:47:21.434Z,16.90
2022-08-23T15:50:08.990Z,18.10
2022-08-23T15:52:55.959Z,17.90
2022-08-23T15:55:44.724Z,16.40
2022-08-23T15:58:31.798Z,18.00
2022-08-23T16:01:21.750Z,17.10
2022-08-23T16:04:11.519Z,16.40
2022-08-23T16:06:58.612Z,17.70
2022-08-23T16:09:45.832Z,17.30
2022-08-23T16:12:33.211Z,15.00
2022-08-23T16:15:20.139Z,16.80
2022-08-23T16:18:08.229Z,16.40
2022-08-23T16:20:55.481Z,16.90
2022-08-23T16:23:43.392Z,16.00
2022-08-23T16:26:35.324Z,16.20
2022-08-23T16:29:22.647Z,16.50
2022-08-23T16:32:09.513Z,16.30
2022-08-23T16:34:56.757Z,18.90
2022-08-23T16:37:43.395Z,17.30
2022-08-23T16:40:30.463Z,17.10
2022-08-23T16:43:17.467Z,16.90
2022-08-23T16:46:05.639Z,17.60
2022-08-23T16:48:52.450Z,18.40
2022-08-23T16:51:40.462Z,17.60
2022-08-23T16:54:29.984Z,18.30
2022-08-23T16:57:18.007Z,18.70
2022-08-23T17:00:07.386Z,18.30
2022-08-23T17:02:54.478Z,15.90
2022-08-23T17:05:41.566Z,19.00
2022-08-23T17:08:28.914Z,16.20
2022-08-23T17:11:19.292Z,15.40
2022-08-23T17:14:06.821Z,17.10
2022-08-23T17:16:54.218Z,19.70
2022-08-23T17:19:41.724Z,19.10
2022-08-23T17:22:28.798Z,17.50
2022-08-23T17:25:17.351Z,18.70
2022-08-23T17:28:05.809Z,18.00
2022-08-23T17:30:52.710Z,15.30
2022-08-23T17:33:40.663Z,18.30
2022-08-23T17:36:57.093Z,16.70
2022-08-23T17:39:43.974Z,16.20
2022-08-23T17:42:32.030Z,15.60
2022-08-23T17:45:19.149Z,16.60
2022-08-23T17:48:06.596Z,16.80
2022-08-23T17:50:53.365Z,17.10
2022-08-23T17:53:40.345Z,16.50
2022-08-23T17:56:28.450Z,18.00
2022-08-23T17:59:15.548Z,15.50
2022-08-23T18:02:02.868Z,16.40
2022-08-23T18:04:50.185Z,17.30
2022-08-23T18:07:37.927Z,15.40
2022-08-23T18:10:25.580Z,24.40
2022-08-23T18:13:12.376Z,17.10
2022-08-23T18:15:59.460Z,16.40
2022-08-23T18:18:46.577Z,16.60
2022-08-23T18:21:37.487Z,16.70
2022-08-23T18:24:24.359Z,17.30
2022-08-23T18:27:29.926Z,17.50
2022-08-23T18:30:17.539Z,17.80
2022-08-23T18:33:06.803Z,16.40
2022-08-23T18:35:53.877Z,17.20
2022-08-23T18:38:44.250Z,16.10
2022-08-23T18:41:31.648Z,15.60
2022-08-23T18:44:19.562Z,15.80
2022-08-23T18:47:07.285Z,16.60
2022-08-23T18:49:54.107Z,15.80
2022-08-23T18:52:41.111Z,16.70
2022-08-23T18:55:28.285Z,16.00
2022-08-23T18:58:14.881Z,14.40
2022-08-23T19:01:06.269Z,16.30
2022-08-23T19:03:55.555Z,16.40
2022-08-23T19:06:42.969Z,15.50
2022-08-23T19:09:30.238Z,15.20
2022-08-23T19:12:17.918Z,16.80
2022-08-23T19:15:05.377Z,15.00
2022-08-23T19:17:57.026Z,15.20
2022-08-23T19:20:44.359Z,14.90
2022-08-23T19:23:31.958Z,14.90
2022-08-23T19:26:22.510Z,15.00
2022-08-23T19:29:10.519Z,17.60
2022-08-23T19:31:58.263Z,16.50
2022-08-23T19:34:45.937Z,17.10
2022-08-23T19:37:33.686Z,14.70
2022-08-23T19:40:21.503Z,14.80
2022-08-23T19:43:09.203Z,14.90
2022-08-23T19:45:56.273Z,16.20
2022-08-23T19:48:47.651Z,15.00
2022-08-23T19:51:35.611Z,18.40
2022-08-23T19:54:23.030Z,15.70
2022-08-23T19:57:13.488Z,15.90
2022-08-23T20:00:06.316Z,16.70
2022-08-23T20:02:54.024Z,17.30
2022-08-23T20:05:42.097Z,16.30
2022-08-23T20:08:30.176Z,16.00
2022-08-23T20:11:16.906Z,15.70
2022-08-23T20:14:05.427Z,15.30
2022-08-23T20:16:54.419Z,15.30
2022-08-23T20:19:42.080Z,15.70
2022-08-23T20:22:47.510Z,19.20
2022-08-23T20:25:35.016Z,15.20
2022-08-23T20:28:26.144Z,15.90
2022-08-23T20:31:25.119Z,20.40
2022-08-23T20:34:12.212Z,15.40
2022-08-23T20:36:59.579Z,18.00
2022-08-23T20:39:47.721Z,20.70
2022-08-23T20:42:34.517Z,18.10
2022-08-23T20:45:21.530Z,16.00
2022-08-23T20:48:11.017Z,14.30
2022-08-23T20:51:00.648Z,15.10
2022-08-23T20:53:47.972Z,17.60
2022-08-23T20:56:35.949Z,15.30
2022-08-23T20:59:23.145Z,19.00
2022-08-23T21:02:10.108Z,15.10
2022-08-23T21:04:57.050Z,16.90
2022-08-23T21:07:44.144Z,16.00
2022-08-23T21:10:31.752Z,16.60
2022-08-23T21:13:18.434Z,18.90
2022-08-23T21:16:05.563Z,16.30
2022-08-23T21:18:54.422Z,17.70
2022-08-23T21:21:43.120Z,21.20
2022-08-23T21:24:29.857Z,20.00
2022-08-23T21:27:16.638Z,20.70
2022-08-23T21:30:08.773Z,18.60
2022-08-23T21:32:55.890Z,17.40
2022-08-23T21:35:43.233Z,19.80
2022-08-23T21:38:31.341Z,19.70
2022-08-23T21:41:37.232Z,20.30
2022-08-23T21:44:25.943Z,18.70
2022-08-23T21:47:13.680Z,29.20
2022-08-23T21:50:00.913Z,19.80
2022-08-23T21:52:56.251Z,17.00
2022-08-23T21:55:44.007Z,20.60
2022-08-23T21:58:33.301Z,19.60
2022-08-23T22:01:20.425Z,20.80
2022-08-23T22:04:10.150Z,19.50
2022-08-23T22:06:59.946Z,19.70
2022-08-23T22:09:47.886Z,23.30
2022-08-23T22:12:34.900Z,19.70
2022-08-23T22:15:21.963Z,18.80
2022-08-23T22:18:09.315Z,18.50
2022-08-23T22:20:58.264Z,18.30
2022-08-23T22:23:45.672Z,19.90
2022-08-23T22:26:33.523Z,22.00
2022-08-23T22:29:20.528Z,22.50
2022-08-23T22:32:08.056Z,18.70
2022-08-23T22:34:55.096Z,19.90
2022-08-23T22:38:03.587Z,18.10
2022-08-23T22:40:52.779Z,19.40
2022-08-23T22:43:39.944Z,19.20
2022-08-23T22:46:29.354Z,22.40
2022-08-23T22:49:16.383Z,20.20
2022-08-23T22:52:03.353Z,21.60
2022-08-23T22:54:50.048Z,23.70
2022-08-23T22:57:38.081Z,19.60
2022-08-23T23:00:25.004Z,23.60
2022-08-23T23:03:12.053Z,24.50
2022-08-23T23:05:59.806Z,23.90
2022-08-23T23:08:47.926Z,24.30
2022-08-23T23:11:35.826Z,18.30
2022-08-23T23:14:23.272Z,22.90
2022-08-23T23:17:10.318Z,22.60
2022-08-23T23:20:15.679Z,21.00
2022-08-23T23:23:02.848Z,20.50
2022-08-23T23:25:50.784Z,23.10
2022-08-23T23:28:37.724Z,22.20
2022-08-23T23:31:24.647Z,23.40
2022-08-23T23:34:12.573Z,24.30
2022-08-23T23:36:59.914Z,24.10
2022-08-23T23:39:47.028Z,23.70
2022-08-23T23:42:35.002Z,24.40
2022-08-23T23:45:22.203Z,22.20
2022-08-23T23:48:09.207Z,25.80
2022-08-23T23:50:56.057Z,32.10
2022-08-23T23:53:43.362Z,28.00
2022-08-23T23:56:31.676Z,24.00
2022-08-23T23:59:19.841Z,26.50
